sensor_id;sensor_type;location;lat;lon;timestamp;P1;durP1;ratioP1;P2;durP2;ratioP2
27999;SDS011;15328;50.860;10.562;2022-08-21T00:03:32;1.67;;;1.58;;
27999;SDS011;15328;50.860;10.562;2022-08-21T00:08:33;3.03;;;1.90;;
27999;SDS011;15328;50.860;10.562;2022-08-21T00:13:33;2.35;;;1.98;;
27999;SDS011;15328;50.860;10.562;2022-08-21T00:18:34;2.33;;;2.00;;
27999;SDS011;15328;50.860;10.562;2022-08-21T00:23:35;2.40;;;2.20;;
27999;SDS011;15328;50.860;10.562;2022-08-21T00:28:35;2.83;;;2.33;;
27999;SDS011;15328;50.860;10.562;2022-08-21T00:33:36;3.85;;;2.60;;
27999;SDS011;15328;50.860;10.562;2022-08-21T00:38:36;2.63;;;2.40;;
27999;SDS011;15328;50.860;10.562;2022-08-21T00:43:37;3.85;;;2.85;;
27999;SDS011;15328;50.860;10.562;2022-08-21T00:48:39;3.08;;;2.75;;
27999;SDS011;15328;50.860;10.562;2022-08-21T00:53:40;2.95;;;2.60;;
27999;SDS011;15328;50.860;10.562;2022-08-21T00:58:43;2.90;;;2.60;;
27999;SDS011;15328;50.860;10.562;2022-08-21T01:03:45;2.70;;;2.47;;
27999;SDS011;15328;50.860;10.562;2022-08-21T01:08:46;2.70;;;2.20;;
27999;SDS011;15328;50.860;10.562;2022-08-21T01:13:46;2.75;;;2.50;;
27999;SDS011;15328;50.860;10.562;2022-08-21T01:18:48;3.17;;;2.47;;
27999;SDS011;15328;50.860;10.562;2022-08-21T01:23:51;2.58;;;2.38;;
27999;SDS011;15328;50.860;10.562;2022-08-21T01:28:57;3.13;;;2.80;;
27999;SDS011;15328;50.860;10.562;2022-08-21T01:34:02;3.80;;;2.65;;
27999;SDS011;15328;50.860;10.562;2022-08-21T01:39:04;5.13;;;2.85;;
27999;SDS011;15328;50.860;10.562;2022-08-21T01:44:05;4.18;;;3.30;;
27999;SDS011;15328;50.860;10.562;2022-08-21T01:49:05;3.70;;;3.30;;
27999;SDS011;15328;50.860;10.562;2022-08-21T01:54:06;3.88;;;3.35;;
27999;SDS011;15328;50.860;10.562;2022-08-21T01:59:07;3.30;;;2.72;;
27999;SDS011;15328;50.860;10.562;2022-08-21T02:04:08;2.63;;;2.38;;
27999;SDS011;15328;50.860;10.562;2022-08-21T02:09:10;3.00;;;2.60;;
27999;SDS011;15328;50.860;10.562;2022-08-21T02:14:13;3.80;;;3.30;;
27999;SDS011;15328;50.860;10.562;2022-08-21T02:19:15;4.97;;;3.33;;
27999;SDS011;15328;50.860;10.562;2022-08-21T02:24:16;3.53;;;3.22;;
27999;SDS011;15328;50.860;10.562;2022-08-21T02:29:16;3.77;;;3.43;;
27999;SDS011;15328;50.860;10.562;2022-08-21T02:34:17;4.43;;;3.90;;
27999;SDS011;15328;50.860;10.562;2022-08-21T02:39:17;3.20;;;2.87;;
27999;SDS011;15328;50.860;10.562;2022-08-21T02:44:18;3.53;;;2.97;;
27999;SDS011;15328;50.860;10.562;2022-08-21T02:49:18;3.90;;;3.27;;
27999;SDS011;15328;50.860;10.562;2022-08-21T02:54:18;5.05;;;3.53;;
27999;SDS011;15328;50.860;10.562;2022-08-21T02:59:18;4.33;;;3.90;;
27999;SDS011;15328;50.860;10.562;2022-08-21T03:04:19;5.10;;;4.43;;
27999;SDS011;15328;50.860;10.562;2022-08-21T03:09:19;5.15;;;4.03;;
27999;SDS011;15328;50.860;10.562;2022-08-21T03:14:20;4.97;;;4.00;;
27999;SDS011;15328;50.860;10.562;2022-08-21T03:19:20;5.20;;;4.20;;
27999;SDS011;15328;50.860;10.562;2022-08-21T03:24:20;5.03;;;3.77;;
27999;SDS011;15328;50.860;10.562;2022-08-21T03:29:21;3.63;;;3.00;;
27999;SDS011;15328;50.860;10.562;2022-08-21T03:34:21;4.13;;;3.60;;
27999;SDS011;15328;50.860;10.562;2022-08-21T03:39:22;4.90;;;4.03;;
27999;SDS011;15328;50.860;10.562;2022-08-21T03:44:22;5.30;;;4.07;;
27999;SDS011;15328;50.860;10.562;2022-08-21T03:49:22;6.33;;;4.27;;
27999;SDS011;15328;50.860;10.562;2022-08-21T03:54:23;5.00;;;3.80;;
27999;SDS011;15328;50.860;10.562;2022-08-21T03:59:23;4.87;;;4.00;;
27999;SDS011;15328;50.860;10.562;2022-08-21T04:04:24;4.00;;;3.45;;
27999;SDS011;15328;50.860;10.562;2022-08-21T04:09:25;5.57;;;3.75;;
27999;SDS011;15328;50.860;10.562;2022-08-21T04:14:26;3.63;;;3.13;;
27999;SDS011;15328;50.860;10.562;2022-08-21T04:19:26;5.38;;;3.92;;
27999;SDS011;15328;50.860;10.562;2022-08-21T04:24:27;4.27;;;3.23;;
27999;SDS011;15328;50.860;10.562;2022-08-21T04:29:27;3.30;;;2.53;;
27999;SDS011;15328;50.860;10.562;2022-08-21T04:34:27;2.78;;;2.47;;
27999;SDS011;15328;50.860;10.562;2022-08-21T04:39:28;2.97;;;2.53;;
27999;SDS011;15328;50.860;10.562;2022-08-21T04:44:28;3.57;;;3.00;;
27999;SDS011;15328;50.860;10.562;2022-08-21T04:49:28;3.03;;;2.63;;
27999;SDS011;15328;50.860;10.562;2022-08-21T04:54:30;3.75;;;2.78;;
27999;SDS011;15328;50.860;10.562;2022-08-21T04:59:32;3.70;;;3.00;;
27999;SDS011;15328;50.860;10.562;2022-08-21T05:04:37;4.20;;;3.08;;
27999;SDS011;15328;50.860;10.562;2022-08-21T05:09:43;2.78;;;2.30;;
27999;SDS011;15328;50.860;10.562;2022-08-21T05:14:44;3.85;;;3.08;;
27999;SDS011;15328;50.860;10.562;2022-08-21T05:19:44;4.40;;;3.28;;
27999;SDS011;15328;50.860;10.562;2022-08-21T05:24:45;4.47;;;3.30;;
27999;SDS011;15328;50.860;10.562;2022-08-21T05:29:45;3.03;;;2.73;;
27999;SDS011;15328;50.860;10.562;2022-08-21T05:34:46;3.20;;;2.67;;
27999;SDS011;15328;50.860;10.562;2022-08-21T05:39:46;3.47;;;2.88;;
27999;SDS011;15328;50.860;10.562;2022-08-21T05:44:47;4.67;;;2.87;;
27999;SDS011;15328;50.860;10.562;2022-08-21T05:49:47;2.87;;;2.40;;
27999;SDS011;15328;50.860;10.562;2022-08-21T05:54:47;4.00;;;3.30;;
27999;SDS011;15328;50.860;10.562;2022-08-21T05:59:48;4.00;;;3.47;;
27999;SDS011;15328;50.860;10.562;2022-08-21T06:04:50;2.90;;;2.42;;
27999;SDS011;15328;50.860;10.562;2022-08-21T06:09:50;3.20;;;2.60;;
27999;SDS011;15328;50.860;10.562;2022-08-21T06:14:50;3.33;;;2.70;;
27999;SDS011;15328;50.860;10.562;2022-08-21T06:19:52;5.28;;;3.40;;
27999;SDS011;15328;50.860;10.562;2022-08-21T06:24:54;3.35;;;2.65;;
27999;SDS011;15328;50.860;10.562;2022-08-21T06:29:54;3.03;;;2.20;;
27999;SDS011;15328;50.860;10.562;2022-08-21T06:34:57;2.83;;;2.30;;
27999;SDS011;15328;50.860;10.562;2022-08-21T06:39:58;2.88;;;2.30;;
27999;SDS011;15328;50.860;10.562;2022-08-21T06:44:58;3.23;;;2.60;;
27999;SDS011;15328;50.860;10.562;2022-08-21T06:49:58;3.77;;;2.40;;
27999;SDS011;15328;50.860;10.562;2022-08-21T06:54:59;3.83;;;2.53;;
27999;SDS011;15328;50.860;10.562;2022-08-21T06:59:59;4.03;;;3.10;;
27999;SDS011;15328;50.860;10.562;2022-08-21T07:04:59;4.50;;;3.40;;
27999;SDS011;15328;50.860;10.562;2022-08-21T07:10:00;3.83;;;2.88;;
27999;SDS011;15328;50.860;10.562;2022-08-21T07:15:01;2.83;;;2.60;;
27999;SDS011;15328;50.860;10.562;2022-08-21T07:20:02;4.50;;;3.10;;
27999;SDS011;15328;50.860;10.562;2022-08-21T07:25:03;3.13;;;2.42;;
27999;SDS011;15328;50.860;10.562;2022-08-21T07:30:05;3.75;;;2.92;;
27999;SDS011;15328;50.860;10.562;2022-08-21T07:35:06;3.25;;;2.55;;
27999;SDS011;15328;50.860;10.562;2022-08-21T07:40:07;3.60;;;3.00;;
27999;SDS011;15328;50.860;10.562;2022-08-21T07:45:08;2.80;;;2.35;;
27999;SDS011;15328;50.860;10.562;2022-08-21T07:50:11;8.20;;;5.10;;
27999;SDS011;15328;50.860;10.562;2022-08-21T07:55:13;3.53;;;2.97;;
27999;SDS011;15328;50.860;10.562;2022-08-21T08:00:17;3.17;;;2.72;;
27999;SDS011;15328;50.860;10.562;2022-08-21T08:05:22;5.10;;;2.90;;
27999;SDS011;15328;50.860;10.562;2022-08-21T08:10:25;3.20;;;2.13;;
27999;SDS011;15328;50.860;10.562;2022-08-21T08:15:26;2.60;;;2.40;;
27999;SDS011;15328;50.860;10.562;2022-08-21T08:20:27;2.72;;;2.20;;
27999;SDS011;15328;50.860;10.562;2022-08-21T08:25:29;2.10;;;1.90;;
27999;SDS011;15328;50.860;10.562;2022-08-21T08:30:29;1.60;;;1.37;;
27999;SDS011;15328;50.860;10.562;2022-08-21T08:35:30;4.05;;;2.20;;
27999;SDS011;15328;50.860;10.562;2022-08-21T08:45:46;4.97;;;2.78;;
27999;SDS011;15328;50.860;10.562;2022-08-21T08:50:52;3.03;;;2.22;;
27999;SDS011;15328;50.860;10.562;2022-08-21T08:55:56;3.15;;;2.15;;
27999;SDS011;15328;50.860;10.562;2022-08-21T09:00:59;2.63;;;1.88;;
27999;SDS011;15328;50.860;10.562;2022-08-21T09:06:03;4.07;;;2.30;;
27999;SDS011;15328;50.860;10.562;2022-08-21T09:22:03;1.23;;;1.02;;
27999;SDS011;15328;50.860;10.562;2022-08-21T09:27:20;2.45;;;1.60;;
27999;SDS011;15328;50.860;10.562;2022-08-21T09:32:29;3.47;;;2.03;;
27999;SDS011;15328;50.860;10.562;2022-08-21T09:37:33;3.50;;;1.73;;
27999;SDS011;15328;50.860;10.562;2022-08-21T09:42:53;1.60;;;1.30;;
27999;SDS011;15328;50.860;10.562;2022-08-21T09:47:55;2.53;;;1.40;;
27999;SDS011;15328;50.860;10.562;2022-08-21T09:52:58;3.28;;;1.80;;
27999;SDS011;15328;50.860;10.562;2022-08-21T09:58:01;3.85;;;1.95;;
27999;SDS011;15328;50.860;10.562;2022-08-21T10:03:34;4.00;;;1.90;;
27999;SDS011;15328;50.860;10.562;2022-08-21T10:08:28;3.28;;;1.63;;
27999;SDS011;15328;50.860;10.562;2022-08-21T10:24:19;1.55;;;1.05;;
27999;SDS011;15328;50.860;10.562;2022-08-21T10:35:02;3.78;;;1.83;;
27999;SDS011;15328;50.860;10.562;2022-08-21T10:50:41;3.97;;;1.88;;
27999;SDS011;15328;50.860;10.562;2022-08-21T11:00:53;3.40;;;1.70;;
27999;SDS011;15328;50.860;10.562;2022-08-21T11:06:22;4.28;;;1.73;;
27999;SDS011;15328;50.860;10.562;2022-08-21T11:11:26;2.55;;;1.50;;
27999;SDS011;15328;50.860;10.562;2022-08-21T11:21:43;3.72;;;1.90;;
27999;SDS011;15328;50.860;10.562;2022-08-21T11:27:03;4.45;;;2.20;;
27999;SDS011;15328;50.860;10.562;2022-08-21T11:42:46;1.88;;;1.15;;
27999;SDS011;15328;50.860;10.562;2022-08-21T11:48:02;2.28;;;1.30;;
27999;SDS011;15328;50.860;10.562;2022-08-21T11:58:22;1.90;;;1.33;;
27999;SDS011;15328;50.860;10.562;2022-08-21T12:03:37;2.33;;;1.00;;
27999;SDS011;15328;50.860;10.562;2022-08-21T12:09:00;2.22;;;1.40;;
27999;SDS011;15328;50.860;10.562;2022-08-21T12:29:16;2.35;;;1.40;;
27999;SDS011;15328;50.860;10.562;2022-08-21T12:34:25;2.22;;;1.30;;
27999;SDS011;15328;50.860;10.562;2022-08-21T12:44:38;3.08;;;1.30;;
27999;SDS011;15328;50.860;10.562;2022-08-21T12:49:52;2.45;;;1.27;;
27999;SDS011;15328;50.860;10.562;2022-08-21T12:54:58;2.38;;;1.50;;
27999;SDS011;15328;50.860;10.562;2022-08-21T12:59:59;2.77;;;1.80;;
27999;SDS011;15328;50.860;10.562;2022-08-21T13:05:04;4.15;;;1.80;;
27999;SDS011;15328;50.860;10.562;2022-08-21T13:10:29;2.15;;;1.55;;
27999;SDS011;15328;50.860;10.562;2022-08-21T13:15:31;4.68;;;1.98;;
27999;SDS011;15328;50.860;10.562;2022-08-21T13:20:35;4.28;;;1.90;;
27999;SDS011;15328;50.860;10.562;2022-08-21T13:25:37;2.38;;;1.13;;
27999;SDS011;15328;50.860;10.562;2022-08-21T13:30:39;2.20;;;1.60;;
27999;SDS011;15328;50.860;10.562;2022-08-21T13:40:57;3.13;;;1.20;;
27999;SDS011;15328;50.860;10.562;2022-08-21T13:46:02;1.58;;;1.10;;
27999;SDS011;15328;50.860;10.562;2022-08-21T13:51:09;2.40;;;1.30;;
27999;SDS011;15328;50.860;10.562;2022-08-21T13:56:21;1.85;;;1.15;;
27999;SDS011;15328;50.860;10.562;2022-08-21T14:01:32;1.33;;;1.00;;
27999;SDS011;15328;50.860;10.562;2022-08-21T14:06:49;1.30;;;0.90;;
27999;SDS011;15328;50.860;10.562;2022-08-21T14:11:50;2.25;;;1.30;;
27999;SDS011;15328;50.860;10.562;2022-08-21T14:17:01;3.70;;;1.60;;
27999;SDS011;15328;50.860;10.562;2022-08-21T14:27:56;2.33;;;1.30;;
27999;SDS011;15328;50.860;10.562;2022-08-21T14:33:25;2.42;;;1.30;;
27999;SDS011;15328;50.860;10.562;2022-08-21T14:38:29;4.15;;;1.90;;
27999;SDS011;15328;50.860;10.562;2022-08-21T14:43:30;4.50;;;1.50;;
27999;SDS011;15328;50.860;10.562;2022-08-21T14:48:31;1.80;;;1.05;;
27999;SDS011;15328;50.860;10.562;2022-08-21T14:53:31;6.27;;;2.07;;
27999;SDS011;15328;50.860;10.562;2022-08-21T14:58:35;1.67;;;1.20;;
27999;SDS011;15328;50.860;10.562;2022-08-21T15:03:38;1.98;;;1.10;;
27999;SDS011;15328;50.860;10.562;2022-08-21T15:08:39;1.65;;;1.00;;
27999;SDS011;15328;50.860;10.562;2022-08-21T15:13:39;1.87;;;1.13;;
27999;SDS011;15328;50.860;10.562;2022-08-21T15:18:40;1.63;;;1.10;;
27999;SDS011;15328;50.860;10.562;2022-08-21T15:23:41;2.03;;;1.30;;
27999;SDS011;15328;50.860;10.562;2022-08-21T15:28:42;2.17;;;1.40;;
27999;SDS011;15328;50.860;10.562;2022-08-21T15:33:42;2.37;;;1.17;;
27999;SDS011;15328;50.860;10.562;2022-08-21T15:38:43;2.07;;;1.10;;
27999;SDS011;15328;50.860;10.562;2022-08-21T15:43:45;2.13;;;1.10;;
27999;SDS011;15328;50.860;10.562;2022-08-21T15:48:48;3.67;;;1.25;;
27999;SDS011;15328;50.860;10.562;2022-08-21T15:53:49;1.77;;;1.20;;
27999;SDS011;15328;50.860;10.562;2022-08-21T15:58:50;2.63;;;1.00;;
27999;SDS011;15328;50.860;10.562;2022-08-21T16:03:52;0.90;;;0.60;;
27999;SDS011;15328;50.860;10.562;2022-08-21T16:08:54;0.90;;;0.82;;
27999;SDS011;15328;50.860;10.562;2022-08-21T16:13:54;1.63;;;0.90;;
27999;SDS011;15328;50.860;10.562;2022-08-21T16:18:55;0.85;;;0.70;;
27999;SDS011;15328;50.860;10.562;2022-08-21T16:23:55;1.07;;;0.70;;
27999;SDS011;15328;50.860;10.562;2022-08-21T16:28:56;1.30;;;0.80;;
27999;SDS011;15328;50.860;10.562;2022-08-21T16:33:59;0.80;;;0.60;;
27999;SDS011;15328;50.860;10.562;2022-08-21T16:39:01;1.20;;;0.73;;
27999;SDS011;15328;50.860;10.562;2022-08-21T16:44:02;1.00;;;0.75;;
27999;SDS011;15328;50.860;10.562;2022-08-21T16:49:04;1.83;;;0.80;;
27999;SDS011;15328;50.860;10.562;2022-08-21T16:54:04;2.13;;;0.80;;
27999;SDS011;15328;50.860;10.562;2022-08-21T16:59:05;1.80;;;0.80;;
27999;SDS011;15328;50.860;10.562;2022-08-21T17:04:06;1.55;;;0.80;;
27999;SDS011;15328;50.860;10.562;2022-08-21T17:09:06;1.50;;;1.00;;
27999;SDS011;15328;50.860;10.562;2022-08-21T17:14:08;1.67;;;0.90;;
27999;SDS011;15328;50.860;10.562;2022-08-21T17:19:11;1.48;;;0.88;;
27999;SDS011;15328;50.860;10.562;2022-08-21T17:24:12;1.48;;;0.85;;
27999;SDS011;15328;50.860;10.562;2022-08-21T17:29:14;2.17;;;1.05;;
27999;SDS011;15328;50.860;10.562;2022-08-21T17:34:16;1.27;;;0.85;;
27999;SDS011;15328;50.860;10.562;2022-08-21T17:39:16;1.80;;;1.10;;
27999;SDS011;15328;50.860;10.562;2022-08-21T17:44:17;2.75;;;1.17;;
27999;SDS011;15328;50.860;10.562;2022-08-21T17:49:19;2.78;;;1.27;;
27999;SDS011;15328;50.860;10.562;2022-08-21T17:54:19;2.23;;;1.07;;
27999;SDS011;15328;50.860;10.562;2022-08-21T17:59:20;2.25;;;1.20;;
27999;SDS011;15328;50.860;10.562;2022-08-21T18:04:22;2.85;;;1.00;;
27999;SDS011;15328;50.860;10.562;2022-08-21T18:09:22;2.22;;;1.17;;
27999;SDS011;15328;50.860;10.562;2022-08-21T18:14:27;1.58;;;0.90;;
27999;SDS011;15328;50.860;10.562;2022-08-21T18:19:31;1.88;;;1.00;;
27999;SDS011;15328;50.860;10.562;2022-08-21T18:24:31;2.20;;;1.30;;
27999;SDS011;15328;50.860;10.562;2022-08-21T18:29:32;1.60;;;1.03;;
27999;SDS011;15328;50.860;10.562;2022-08-21T18:34:36;2.30;;;1.15;;
27999;SDS011;15328;50.860;10.562;2022-08-21T18:39:40;1.98;;;1.15;;
27999;SDS011;15328;50.860;10.562;2022-08-21T18:44:42;2.10;;;1.38;;
27999;SDS011;15328;50.860;10.562;2022-08-21T18:49:47;2.25;;;1.10;;
27999;SDS011;15328;50.860;10.562;2022-08-21T18:54:47;1.30;;;0.90;;
27999;SDS011;15328;50.860;10.562;2022-08-21T18:59:47;1.73;;;1.25;;
27999;SDS011;15328;50.860;10.562;2022-08-21T19:04:48;1.77;;;1.30;;
27999;SDS011;15328;50.860;10.562;2022-08-21T19:09:48;2.30;;;1.20;;
27999;SDS011;15328;50.860;10.562;2022-08-21T19:14:49;2.03;;;1.20;;
27999;SDS011;15328;50.860;10.562;2022-08-21T19:19:49;3.50;;;1.55;;
27999;SDS011;15328;50.860;10.562;2022-08-21T19:24:50;2.65;;;1.63;;
27999;SDS011;15328;50.860;10.562;2022-08-21T19:29:50;3.63;;;1.43;;
27999;SDS011;15328;50.860;10.562;2022-08-21T19:34:50;2.58;;;1.30;;
27999;SDS011;15328;50.860;10.562;2022-08-21T19:39:51;2.53;;;1.43;;
27999;SDS011;15328;50.860;10.562;2022-08-21T19:44:51;2.55;;;1.45;;
27999;SDS011;15328;50.860;10.562;2022-08-21T19:49:53;1.88;;;1.00;;
27999;SDS011;15328;50.860;10.562;2022-08-21T19:54:57;2.55;;;1.35;;
27999;SDS011;15328;50.860;10.562;2022-08-21T19:59:57;2.83;;;1.60;;
27999;SDS011;15328;50.860;10.562;2022-08-21T20:04:57;1.45;;;1.15;;
27999;SDS011;15328;50.860;10.562;2022-08-21T20:09:58;3.63;;;1.30;;
27999;SDS011;15328;50.860;10.562;2022-08-21T20:14:58;5.00;;;1.77;;
27999;SDS011;15328;50.860;10.562;2022-08-21T20:19:58;2.42;;;1.30;;
27999;SDS011;15328;50.860;10.562;2022-08-21T20:24:59;2.33;;;1.30;;
27999;SDS011;15328;50.860;10.562;2022-08-21T20:29:59;2.30;;;1.27;;
27999;SDS011;15328;50.860;10.562;2022-08-21T20:35:00;2.42;;;1.20;;
27999;SDS011;15328;50.860;10.562;2022-08-21T20:40:01;2.10;;;1.17;;
27999;SDS011;15328;50.860;10.562;2022-08-21T20:45:03;2.95;;;1.40;;
27999;SDS011;15328;50.860;10.562;2022-08-21T20:50:08;2.10;;;1.15;;
27999;SDS011;15328;50.860;10.562;2022-08-21T20:55:19;3.55;;;1.40;;
27999;SDS011;15328;50.860;10.562;2022-08-21T21:00:24;2.40;;;1.30;;
27999;SDS011;15328;50.860;10.562;2022-08-21T21:05:30;2.33;;;1.40;;
27999;SDS011;15328;50.860;10.562;2022-08-21T21:16:03;1.85;;;1.10;;
27999;SDS011;15328;50.860;10.562;2022-08-21T21:21:19;1.38;;;1.08;;
27999;SDS011;15328;50.860;10.562;2022-08-21T21:31:29;2.85;;;1.30;;
27999;SDS011;15328;50.860;10.562;2022-08-21T21:36:43;3.05;;;1.58;;
27999;SDS011;15328;50.860;10.562;2022-08-21T22:08:18;2.38;;;1.33;;
27999;SDS011;15328;50.860;10.562;2022-08-21T22:18:38;2.30;;;1.20;;
27999;SDS011;15328;50.860;10.562;2022-08-21T22:23:51;1.15;;;1.00;;
27999;SDS011;15328;50.860;10.562;2022-08-21T22:28:54;1.63;;;0.90;;
27999;SDS011;15328;50.860;10.562;2022-08-21T22:39:16;2.28;;;1.00;;
27999;SDS011;15328;50.860;10.562;2022-08-21T22:44:25;2.17;;;1.20;;
27999;SDS011;15328;50.860;10.562;2022-08-21T22:49:28;2.15;;;1.30;;
27999;SDS011;15328;50.860;10.562;2022-08-21T22:54:33;2.05;;;1.10;;
27999;SDS011;15328;50.860;10.562;2022-08-21T22:59:41;3.05;;;1.70;;
27999;SDS011;15328;50.860;10.562;2022-08-21T23:04:56;2.45;;;1.40;;
27999;SDS011;15328;50.860;10.562;2022-08-21T23:09:59;1.90;;;1.27;;
27999;SDS011;15328;50.860;10.562;2022-08-21T23:15:10;2.47;;;1.30;;
27999;SDS011;15328;50.860;10.562;2022-08-21T23:20:14;1.85;;;1.20;;
27999;SDS011;15328;50.860;10.562;2022-08-21T23:25:44;2.80;;;1.08;;
27999;SDS011;15328;50.860;10.562;2022-08-21T23:47:55;2.00;;;1.30;;
